createdAt,value
2022-08-24T00:01:46.728Z,19.38
2022-08-24T00:04:13.788Z,19.38
2022-08-24T00:06:43.212Z,19.37
2022-08-24T00:09:10.188Z,19.36
2022-08-24T00:11:37.155Z,19.35
2022-08-24T00:14:04.496Z,19.36
2022-08-24T00:16:31.771Z,19.37
2022-08-24T00:18:58.780Z,19.38
2022-08-24T00:21:27.358Z,19.38
2022-08-24T00:23:54.708Z,19.43
2022-08-24T00:26:28.656Z,19.41
2022-08-24T00:28:57.640Z,19.42
2022-08-24T00:31:26.221Z,19.42
2022-08-24T00:33:54.441Z,19.45
2022-08-24T00:36:22.183Z,19.48
2022-08-24T00:38:49.697Z,19.49
2022-08-24T00:41:17.354Z,19.61
2022-08-24T00:43:58.901Z,19.51
2022-08-24T00:46:30.591Z,19.49
2022-08-24T00:49:21.468Z,19.41
2022-08-24T00:51:56.873Z,19.45
2022-08-24T00:54:26.918Z,19.45
2022-08-24T00:56:58.542Z,19.45
2022-08-24T00:59:30.557Z,19.46
2022-08-24T01:02:02.173Z,19.46
2022-08-24T01:04:48.980Z,19.48
2022-08-24T01:07:16.321Z,19.49
2022-08-24T01:09:43.251Z,19.51
2022-08-24T01:12:10.680Z,19.51
2022-08-24T01:14:38.094Z,19.49
2022-08-24T01:17:24.092Z,19.46
2022-08-24T01:19:55.218Z,19.43
2022-08-24T01:22:33.021Z,19.41
2022-08-24T01:25:00.499Z,19.39
2022-08-24T01:27:28.348Z,19.37
2022-08-24T01:29:56.068Z,19.30
2022-08-24T01:32:24.616Z,19.27
2022-08-24T01:34:51.607Z,19.21
2022-08-24T01:37:18.451Z,19.16
2022-08-24T01:39:47.021Z,19.14
2022-08-24T01:42:14.436Z,19.04
2022-08-24T01:44:45.466Z,18.96
2022-08-24T01:47:15.342Z,18.95
2022-08-24T01:49:45.228Z,18.93
2022-08-24T01:52:14.547Z,18.90
2022-08-24T01:54:43.596Z,18.87
2022-08-24T01:57:11.039Z,18.80
2022-08-24T01:59:43.152Z,18.76
2022-08-24T02:02:22.618Z,18.77
2022-08-24T02:04:49.390Z,18.68
2022-08-24T02:07:15.885Z,18.64
2022-08-24T02:09:42.669Z,18.63
2022-08-24T02:12:09.386Z,18.66
2022-08-24T02:14:36.607Z,18.56
2022-08-24T02:17:05.521Z,18.50
2022-08-24T02:19:32.532Z,18.50
2022-08-24T02:22:00.428Z,18.43
2022-08-24T02:24:30.453Z,18.52
2022-08-24T02:26:57.060Z,18.42
2022-08-24T02:29:23.635Z,18.40
2022-08-24T02:31:50.337Z,18.31
2022-08-24T02:34:17.541Z,18.29
2022-08-24T02:36:44.006Z,18.21
2022-08-24T02:39:10.741Z,18.15
2022-08-24T02:41:37.790Z,18.13
2022-08-24T02:44:04.946Z,17.95
2022-08-24T02:46:31.964Z,17.87
2022-08-24T02:49:11.327Z,17.85
2022-08-24T02:51:44.121Z,17.77
2022-08-24T02:54:13.381Z,17.70
2022-08-24T02:56:39.818Z,17.62
2022-08-24T02:59:06.556Z,17.61
2022-08-24T03:01:33.088Z,17.60
2022-08-24T03:03:59.574Z,17.53
2022-08-24T03:06:26.058Z,17.48
2022-08-24T03:08:56.148Z,17.44
2022-08-24T03:11:27.717Z,17.40
2022-08-24T03:13:56.911Z,17.37
2022-08-24T03:16:23.364Z,17.33
2022-08-24T03:18:50.046Z,17.39
2022-08-24T03:21:16.844Z,17.39
2022-08-24T03:23:43.534Z,17.37
2022-08-24T03:26:11.014Z,17.34
2022-08-24T03:28:37.525Z,17.32
2022-08-24T03:31:04.489Z,17.25
2022-08-24T03:33:31.044Z,17.33
2022-08-24T03:35:57.533Z,17.30
2022-08-24T03:38:24.936Z,17.26
2022-08-24T03:40:51.502Z,17.27
2022-08-24T03:43:36.811Z,17.29
2022-08-24T03:46:06.256Z,17.30
2022-08-24T03:48:33.018Z,17.32
2022-08-24T03:50:59.557Z,17.30
2022-08-24T03:53:26.128Z,17.27
2022-08-24T03:55:52.669Z,17.31
2022-08-24T03:58:19.176Z,17.33
2022-08-24T04:00:45.717Z,17.34
2022-08-24T04:03:13.143Z,17.35
2022-08-24T04:05:40.782Z,17.39
2022-08-24T04:08:08.192Z,17.44
2022-08-24T04:10:35.196Z,17.50
2022-08-24T04:13:01.792Z,17.54
2022-08-24T04:15:29.281Z,17.59
2022-08-24T04:17:55.789Z,17.60
2022-08-24T04:20:23.891Z,17.65
2022-08-24T04:22:51.422Z,17.72
2022-08-24T04:25:24.662Z,17.77
2022-08-24T04:27:51.934Z,17.85
2022-08-24T04:30:18.773Z,17.90
2022-08-24T04:32:45.364Z,17.93
2022-08-24T04:35:12.626Z,17.96
2022-08-24T04:37:39.089Z,18.00
2022-08-24T04:40:08.042Z,18.07
2022-08-24T04:42:35.537Z,18.12
2022-08-24T04:45:04.086Z,18.18
2022-08-24T04:47:30.581Z,18.24
2022-08-24T04:49:57.140Z,18.32
2022-08-24T04:52:24.143Z,18.43
2022-08-24T04:54:50.731Z,18.51
2022-08-24T04:57:20.759Z,18.58
2022-08-24T04:59:47.238Z,18.70
2022-08-24T05:02:13.855Z,18.84
2022-08-24T05:04:40.503Z,18.91
2022-08-24T05:07:07.040Z,18.97
2022-08-24T05:09:33.460Z,19.05
2022-08-24T05:11:59.962Z,19.12
2022-08-24T05:14:28.997Z,19.22
2022-08-24T05:16:56.041Z,19.33
2022-08-24T05:19:23.481Z,19.38
2022-08-24T05:21:50.359Z,19.48
2022-08-24T05:24:17.159Z,19.65
2022-08-24T05:26:43.569Z,19.81
2022-08-24T05:29:10.712Z,19.91
2022-08-24T05:31:37.510Z,20.00
2022-08-24T05:34:04.440Z,20.15
2022-08-24T05:36:34.364Z,20.22
2022-08-24T05:39:06.998Z,20.36
2022-08-24T05:41:37.163Z,20.52
2022-08-24T05:44:06.573Z,20.81
2022-08-24T05:46:33.472Z,20.87
2022-08-24T05:49:00.355Z,20.94
2022-08-24T05:51:27.366Z,21.04
2022-08-24T05:53:53.957Z,20.97
2022-08-24T05:56:20.543Z,21.20
2022-08-24T05:58:47.400Z,21.30
2022-08-24T06:01:20.894Z,21.42
2022-08-24T06:03:48.382Z,21.51
2022-08-24T06:06:16.305Z,21.63
2022-08-24T06:08:46.292Z,21.68
2022-08-24T06:11:24.794Z,22.07
2022-08-24T06:14:07.623Z,22.22
2022-08-24T06:16:38.720Z,22.36
2022-08-24T06:19:09.283Z,22.99
2022-08-24T06:21:39.204Z,23.41
2022-08-24T06:24:08.953Z,23.98
2022-08-24T06:26:56.402Z,24.64
2022-08-24T06:29:26.398Z,25.21
2022-08-24T06:31:56.400Z,25.55
2022-08-24T06:34:26.130Z,26.42
2022-08-24T06:36:55.451Z,26.99
2022-08-24T06:39:22.182Z,27.13
2022-08-24T06:41:49.134Z,26.79
2022-08-24T06:44:15.768Z,27.23
2022-08-24T06:46:42.279Z,27.19
2022-08-24T06:49:08.923Z,27.91
2022-08-24T06:51:35.411Z,28.92
2022-08-24T06:54:02.101Z,28.91
2022-08-24T06:56:28.673Z,28.97
2022-08-24T06:58:55.424Z,29.82
2022-08-24T07:01:25.749Z,29.45
2022-08-24T07:03:52.801Z,29.94
2022-08-24T07:06:19.576Z,29.54
2022-08-24T07:08:46.590Z,28.69
2022-08-24T07:11:15.009Z,28.69
2022-08-24T07:13:41.887Z,27.80
2022-08-24T07:16:10.113Z,27.52
2022-08-24T07:18:37.185Z,27.37
2022-08-24T07:21:05.106Z,27.24
2022-08-24T07:23:42.187Z,26.16
2022-08-24T07:26:21.102Z,25.93
2022-08-24T07:28:53.713Z,25.51
2022-08-24T07:31:21.153Z,25.23
2022-08-24T07:33:47.991Z,24.98
2022-08-24T07:36:22.012Z,24.38
2022-08-24T07:38:52.576Z,24.45
2022-08-24T07:41:40.259Z,24.45
2022-08-24T07:44:08.287Z,24.82
2022-08-24T07:46:34.877Z,25.60
2022-08-24T07:49:11.723Z,26.09
2022-08-24T07:51:46.945Z,26.54
2022-08-24T07:54:13.969Z,27.17
2022-08-24T07:56:41.492Z,27.52
2022-08-24T07:59:12.474Z,27.71
2022-08-24T08:01:42.875Z,27.79
2022-08-24T08:04:09.816Z,27.84
2022-08-24T08:06:37.384Z,27.90
2022-08-24T08:09:05.418Z,28.09
2022-08-24T08:11:32.560Z,28.34
2022-08-24T08:13:59.270Z,28.90
2022-08-24T08:16:27.740Z,29.46
2022-08-24T08:19:09.398Z,29.53
2022-08-24T08:22:00.424Z,28.53
2022-08-24T08:24:27.049Z,28.57
2022-08-24T08:26:55.926Z,28.06
2022-08-24T08:29:24.320Z,27.09
2022-08-24T08:31:52.206Z,26.79
2022-08-24T08:34:18.863Z,26.82
2022-08-24T08:36:45.606Z,26.85
2022-08-24T08:39:14.291Z,27.59
2022-08-24T08:41:58.190Z,28.27
2022-08-24T08:44:43.556Z,28.89
2022-08-24T08:47:30.597Z,29.79
2022-08-24T08:50:06.386Z,29.48
2022-08-24T08:52:48.803Z,28.49
2022-08-24T08:55:24.289Z,30.32
2022-08-24T08:57:51.224Z,30.44
2022-08-24T09:00:22.294Z,30.74
2022-08-24T09:03:12.661Z,28.75
2022-08-24T09:06:16.904Z,29.17
2022-08-24T09:09:06.634Z,29.36
2022-08-24T09:11:58.074Z,29.69
2022-08-24T09:14:46.711Z,29.51
2022-08-24T09:17:52.472Z,29.56
2022-08-24T09:20:46.734Z,29.23
2022-08-24T09:23:29.495Z,29.37
2022-08-24T09:26:02.391Z,28.67
2022-08-24T09:28:44.888Z,28.78
2022-08-24T09:31:38.818Z,28.76
2022-08-24T09:34:39.966Z,28.42
2022-08-24T09:37:09.396Z,28.33
2022-08-24T09:39:37.334Z,28.53
2022-08-24T09:42:19.589Z,28.85
2022-08-24T09:45:26.627Z,29.09
2022-08-24T09:48:20.167Z,28.49
2022-08-24T09:50:59.860Z,28.76
2022-08-24T09:53:32.387Z,28.51
2022-08-24T09:56:14.375Z,28.38
2022-08-24T09:58:50.503Z,26.80
2022-08-24T10:01:28.693Z,26.75
2022-08-24T10:04:03.986Z,27.00
2022-08-24T10:06:55.472Z,26.96
2022-08-24T10:09:34.392Z,27.42
2022-08-24T10:12:37.569Z,28.02
2022-08-24T10:15:16.695Z,28.49
2022-08-24T10:17:46.195Z,28.84
2022-08-24T10:20:24.101Z,29.02
2022-08-24T10:23:28.265Z,29.73
2022-08-24T10:26:21.047Z,30.64
2022-08-24T10:29:25.217Z,32.62
2022-08-24T10:32:21.182Z,33.00
2022-08-24T10:35:00.432Z,32.18
2022-08-24T10:37:51.742Z,30.30
2022-08-24T10:40:36.226Z,31.32
2022-08-24T10:43:36.759Z,31.50
2022-08-24T10:46:36.530Z,31.13
2022-08-24T10:49:35.029Z,30.76
2022-08-24T10:52:23.095Z,31.71
2022-08-24T10:54:51.409Z,31.26
2022-08-24T10:57:28.613Z,30.85
2022-08-24T11:00:01.182Z,31.17
2022-08-24T11:02:34.135Z,30.65
2022-08-24T11:05:14.523Z,30.48
2022-08-24T11:08:02.717Z,29.65
2022-08-24T11:10:37.215Z,29.22
2022-08-24T11:13:25.902Z,29.17
2022-08-24T11:16:05.705Z,28.42
2022-08-24T11:18:54.473Z,28.86
2022-08-24T11:21:34.097Z,28.57
2022-08-24T11:24:10.820Z,28.20
2022-08-24T11:27:26.094Z,28.70
2022-08-24T11:30:35.149Z,28.59
2022-08-24T11:33:54.701Z,28.20
2022-08-24T11:36:33.360Z,28.72
2022-08-24T11:39:21.934Z,28.90
2022-08-24T11:42:29.205Z,28.91
2022-08-24T11:45:13.107Z,28.66
2022-08-24T11:48:29.623Z,28.23
2022-08-24T11:51:15.139Z,28.82
2022-08-24T11:54:09.702Z,29.03
2022-08-24T11:56:43.730Z,29.07
2022-08-24T11:59:17.767Z,29.51
2022-08-24T12:02:05.233Z,29.48
2022-08-24T12:04:56.718Z,28.78
2022-08-24T12:07:42.576Z,28.31
2022-08-24T12:10:19.324Z,28.30
2022-08-24T12:12:57.898Z,28.20
2022-08-24T12:15:48.706Z,28.41
2022-08-24T12:18:34.349Z,28.35
2022-08-24T12:21:01.422Z,27.87
2022-08-24T12:23:50.503Z,27.82
2022-08-24T12:26:56.935Z,28.08
2022-08-24T12:29:29.304Z,28.19
2022-08-24T12:32:02.230Z,29.07
2022-08-24T12:34:58.769Z,29.66
2022-08-24T12:37:32.781Z,30.77
2022-08-24T12:40:24.393Z,30.80
2022-08-24T12:43:08.662Z,31.87
2022-08-24T12:45:36.998Z,33.24
2022-08-24T12:48:24.331Z,33.31
2022-08-24T12:51:07.699Z,33.51
2022-08-24T12:53:47.574Z,33.35
2022-08-24T12:56:42.955Z,32.69
2022-08-24T12:59:25.641Z,31.00
2022-08-24T13:02:01.663Z,30.03
2022-08-24T13:04:39.620Z,29.94
2022-08-24T13:07:10.572Z,29.57
2022-08-24T13:09:40.390Z,29.23
2022-08-24T13:12:34.761Z,28.96
2022-08-24T13:15:22.378Z,29.03
2022-08-24T13:18:03.071Z,28.46
2022-08-24T13:20:36.305Z,28.44
2022-08-24T13:23:18.945Z,28.79
2022-08-24T13:25:48.209Z,29.06
2022-08-24T13:28:20.949Z,29.18
2022-08-24T13:30:53.646Z,29.32
2022-08-24T13:33:37.791Z,29.58
2022-08-24T13:36:06.232Z,29.20
2022-08-24T13:38:35.697Z,29.39
2022-08-24T13:41:08.187Z,29.77
2022-08-24T13:43:52.171Z,29.92
2022-08-24T13:46:57.302Z,29.41
2022-08-24T13:49:44.059Z,29.43
2022-08-24T13:52:37.408Z,30.21
2022-08-24T13:55:22.779Z,30.63
2022-08-24T13:58:23.921Z,30.77
2022-08-24T14:01:01.613Z,30.45
2022-08-24T14:03:38.605Z,29.89
2022-08-24T14:06:30.709Z,29.65
2022-08-24T14:09:12.942Z,29.92
2022-08-24T14:11:51.590Z,30.00
2022-08-24T14:14:51.295Z,29.46
2022-08-24T14:17:50.208Z,29.58
2022-08-24T14:20:58.412Z,29.24
2022-08-24T14:23:34.009Z,29.29
2022-08-24T14:26:40.226Z,29.59
2022-08-24T14:29:15.543Z,29.35
2022-08-24T14:32:12.325Z,29.27
2022-08-24T14:34:41.887Z,29.44
2022-08-24T14:37:23.379Z,29.25
2022-08-24T14:40:00.250Z,29.15
2022-08-24T14:42:40.258Z,28.89
2022-08-24T14:45:21.710Z,28.66
2022-08-24T14:48:10.040Z,28.64
2022-08-24T14:50:59.048Z,28.62
2022-08-24T14:53:49.091Z,28.65
2022-08-24T14:56:49.755Z,28.45
2022-08-24T14:59:22.401Z,28.38
2022-08-24T15:01:51.293Z,28.08
2022-08-24T15:04:37.384Z,28.07
2022-08-24T15:07:29.468Z,27.85
2022-08-24T15:09:59.499Z,27.92
2022-08-24T15:12:44.156Z,27.93
2022-08-24T15:15:34.369Z,27.85
2022-08-24T15:18:22.611Z,27.53
2022-08-24T15:21:11.098Z,27.47
2022-08-24T15:24:09.727Z,27.47
2022-08-24T15:26:42.963Z,27.37
2022-08-24T15:29:18.604Z,27.36
2022-08-24T15:32:11.671Z,27.34
2022-08-24T15:34:49.486Z,27.42
2022-08-24T15:37:26.132Z,27.35
2022-08-24T15:39:52.671Z,27.38
2022-08-24T15:42:24.408Z,27.68
2022-08-24T15:45:09.995Z,27.67
2022-08-24T15:47:38.956Z,27.79
2022-08-24T15:50:09.339Z,27.93
2022-08-24T15:53:17.461Z,27.72
2022-08-24T15:55:47.229Z,27.74
2022-08-24T15:58:27.963Z,27.91
2022-08-24T16:01:37.539Z,28.14
2022-08-24T16:04:12.749Z,28.35
2022-08-24T16:06:46.490Z,28.08
2022-08-24T16:09:19.569Z,28.14
2022-08-24T16:12:01.907Z,28.14
2022-08-24T16:14:38.315Z,27.88
2022-08-24T16:17:27.929Z,27.81
2022-08-24T16:19:58.166Z,27.63
2022-08-24T16:22:35.810Z,27.56
2022-08-24T16:25:22.588Z,27.49
2022-08-24T16:27:58.321Z,27.58
2022-08-24T16:30:47.081Z,27.37
2022-08-24T16:33:43.329Z,27.35
2022-08-24T16:36:17.961Z,27.33
2022-08-24T16:38:49.825Z,27.22
2022-08-24T16:41:20.291Z,27.32
2022-08-24T16:43:47.412Z,27.27
2022-08-24T16:46:19.573Z,27.22
2022-08-24T16:48:45.976Z,27.26
2022-08-24T16:51:12.459Z,27.23
2022-08-24T16:53:49.945Z,27.26
2022-08-24T16:56:17.046Z,27.33
2022-08-24T16:58:45.336Z,27.25
2022-08-24T17:01:13.771Z,27.27
2022-08-24T17:03:40.614Z,27.27
2022-08-24T17:06:07.352Z,27.23
2022-08-24T17:08:34.096Z,27.30
2022-08-24T17:11:00.506Z,27.29
2022-08-24T17:13:48.438Z,27.30
2022-08-24T17:16:13.637Z,27.26
2022-08-24T17:18:41.575Z,27.32
2022-08-24T17:21:08.409Z,27.35
2022-08-24T17:23:34.987Z,27.05
2022-08-24T17:26:03.556Z,26.91
2022-08-24T17:28:30.571Z,26.84
2022-08-24T17:30:57.017Z,26.59
2022-08-24T17:33:23.568Z,26.32
2022-08-24T17:35:51.809Z,26.20
2022-08-24T17:38:18.350Z,26.05
2022-08-24T17:40:44.892Z,25.91
2022-08-24T17:43:15.194Z,25.80
2022-08-24T17:45:41.679Z,25.65
2022-08-24T17:48:08.467Z,25.49
2022-08-24T17:50:40.094Z,25.45
2022-08-24T17:53:06.522Z,25.27
2022-08-24T17:55:32.951Z,25.11
2022-08-24T17:58:01.133Z,24.95
2022-08-24T18:00:27.689Z,24.84
2022-08-24T18:02:54.668Z,24.69
2022-08-24T18:05:21.787Z,24.59
2022-08-24T18:07:54.294Z,24.48
2022-08-24T18:10:29.491Z,24.34
2022-08-24T18:12:57.974Z,24.23
2022-08-24T18:15:28.153Z,24.12
2022-08-24T18:18:04.320Z,23.99
2022-08-24T18:20:35.251Z,23.91
2022-08-24T18:23:01.780Z,23.80
2022-08-24T18:25:30.023Z,23.69
2022-08-24T18:27:57.638Z,23.58
2022-08-24T18:30:30.281Z,23.50
2022-08-24T18:32:57.258Z,23.39
2022-08-24T18:35:24.295Z,23.29
2022-08-24T18:37:50.956Z,23.16
2022-08-24T18:40:21.062Z,23.06
2022-08-24T18:42:48.591Z,22.96
2022-08-24T18:45:15.189Z,22.91
2022-08-24T18:47:42.317Z,22.84
2022-08-24T18:50:09.178Z,22.74
2022-08-24T18:52:40.669Z,22.66
2022-08-24T18:55:09.751Z,22.61
2022-08-24T18:57:36.193Z,22.55
2022-08-24T19:00:05.661Z,22.47
2022-08-24T19:02:33.526Z,22.42
2022-08-24T19:05:05.324Z,22.33
2022-08-24T19:07:34.372Z,22.26
2022-08-24T19:10:01.439Z,22.13
2022-08-24T19:12:31.816Z,22.08
2022-08-24T19:14:59.418Z,22.07
2022-08-24T19:17:26.444Z,21.96
2022-08-24T19:19:53.526Z,21.90
2022-08-24T19:22:20.411Z,21.83
2022-08-24T19:24:47.095Z,21.75
2022-08-24T19:27:13.815Z,21.70
2022-08-24T19:29:55.016Z,21.67
2022-08-24T19:32:25.491Z,21.62
2022-08-24T19:34:52.671Z,21.58
2022-08-24T19:37:19.727Z,21.57
2022-08-24T19:39:47.958Z,21.51
2022-08-24T19:42:16.975Z,21.45
2022-08-24T19:45:02.481Z,21.44
2022-08-24T19:47:31.802Z,21.39
2022-08-24T19:49:58.702Z,21.33
2022-08-24T19:52:25.748Z,21.29
2022-08-24T19:54:52.309Z,21.30
2022-08-24T19:57:24.976Z,21.29
2022-08-24T19:59:52.804Z,21.21
2022-08-24T20:02:19.386Z,21.13
2022-08-24T20:04:46.085Z,21.11
2022-08-24T20:07:17.031Z,21.07
2022-08-24T20:09:43.908Z,21.02
2022-08-24T20:12:11.401Z,21.00
2022-08-24T20:14:38.112Z,20.92
2022-08-24T20:17:05.402Z,20.86
2022-08-24T20:19:34.697Z,20.85
2022-08-24T20:22:01.131Z,20.77
2022-08-24T20:24:27.690Z,20.71
2022-08-24T20:26:54.252Z,20.67
2022-08-24T20:29:20.881Z,20.64
2022-08-24T20:31:50.652Z,20.58
2022-08-24T20:34:18.818Z,20.56
2022-08-24T20:36:48.215Z,20.55
2022-08-24T20:39:18.048Z,20.49
2022-08-24T20:41:45.380Z,20.44
2022-08-24T20:44:11.993Z,20.38
2022-08-24T20:46:39.679Z,20.36
2022-08-24T20:49:07.793Z,20.31
2022-08-24T20:51:38.867Z,20.29
2022-08-24T20:54:07.339Z,20.24
2022-08-24T20:56:36.943Z,20.21
2022-08-24T20:59:06.383Z,20.17
2022-08-24T21:01:32.917Z,20.12
2022-08-24T21:04:04.191Z,20.06
2022-08-24T21:06:31.684Z,20.00
2022-08-24T21:08:58.203Z,20.01
2022-08-24T21:11:24.793Z,19.96
2022-08-24T21:13:51.218Z,19.92
2022-08-24T21:16:18.691Z,19.91
2022-08-24T21:18:46.902Z,19.83
2022-08-24T21:21:13.860Z,19.84
2022-08-24T21:23:40.272Z,19.77
2022-08-24T21:26:10.975Z,19.79
2022-08-24T21:28:40.338Z,19.74
2022-08-24T21:31:07.086Z,19.70
2022-08-24T21:33:53.271Z,19.67
2022-08-24T21:36:23.274Z,19.62
2022-08-24T21:38:52.412Z,19.58
2022-08-24T21:41:20.178Z,19.57
2022-08-24T21:43:46.618Z,19.58
2022-08-24T21:46:13.276Z,19.57
2022-08-24T21:48:40.063Z,19.51
2022-08-24T21:51:07.037Z,19.49
2022-08-24T21:53:33.637Z,19.45
2022-08-24T21:56:01.760Z,19.41
2022-08-24T21:58:28.299Z,19.39
2022-08-24T22:00:59.093Z,19.40
2022-08-24T22:03:31.653Z,19.40
2022-08-24T22:06:07.940Z,19.36
2022-08-24T22:08:35.958Z,19.36
2022-08-24T22:11:02.517Z,19.35
2022-08-24T22:13:28.918Z,19.36
2022-08-24T22:15:55.416Z,19.34
2022-08-24T22:18:22.112Z,19.34
2022-08-24T22:20:48.637Z,19.28
2022-08-24T22:23:15.243Z,19.22
2022-08-24T22:25:43.949Z,19.21
2022-08-24T22:28:10.543Z,19.16
2022-08-24T22:30:37.054Z,19.10
2022-08-24T22:33:05.016Z,19.06
2022-08-24T22:35:32.019Z,19.03
2022-08-24T22:38:11.214Z,18.99
2022-08-24T22:40:37.831Z,19.02
2022-08-24T22:43:05.019Z,19.01
2022-08-24T22:45:31.483Z,18.98
2022-08-24T22:47:58.578Z,18.96
2022-08-24T22:50:25.105Z,18.89
2022-08-24T22:52:53.094Z,18.86
2022-08-24T22:55:19.600Z,18.81
2022-08-24T22:57:51.140Z,18.78
2022-08-24T23:00:18.489Z,18.71
2022-08-24T23:02:44.950Z,18.69
2022-08-24T23:05:11.409Z,18.68
2022-08-24T23:07:37.868Z,18.65
2022-08-24T23:10:06.151Z,18.62
2022-08-24T23:12:33.323Z,18.59
2022-08-24T23:15:00.858Z,18.57
2022-08-24T23:17:28.059Z,18.56
2022-08-24T23:20:01.907Z,18.53
2022-08-24T23:22:31.560Z,18.50
2022-08-24T23:24:59.313Z,18.51
2022-08-24T23:27:27.565Z,18.46
2022-08-24T23:30:04.913Z,18.43
2022-08-24T23:32:31.477Z,18.37
2022-08-24T23:34:59.592Z,18.36
2022-08-24T23:37:26.163Z,18.34
2022-08-24T23:39:53.687Z,18.32
2022-08-24T23:42:21.092Z,18.32
2022-08-24T23:44:47.665Z,18.31
2022-08-24T23:47:14.185Z,18.33
2022-08-24T23:49:41.419Z,18.27
2022-08-24T23:52:08.073Z,18.24
2022-08-24T23:54:34.908Z,18.23
2022-08-24T23:57:03.907Z,18.20
2022-08-24T23:59:30.460Z,18.17
